createdAt,value
2023-01-22T00:04:34.937Z,1014.95
2023-01-22T00:09:34.906Z,1014.92
2023-01-22T00:14:34.933Z,1014.92
2023-01-22T00:19:34.828Z,1014.90
2023-01-22T00:24:34.749Z,1014.77
2023-01-22T00:29:34.791Z,1014.73
2023-01-22T00:34:34.617Z,1014.58
2023-01-22T00:39:34.633Z,1014.48
2023-01-22T00:44:34.506Z,1014.53
2023-01-22T00:49:34.516Z,1014.55
2023-01-22T00:54:34.404Z,1014.45
2023-01-22T00:59:34.342Z,1014.37
2023-01-22T01:04:34.319Z,1014.35
2023-01-22T01:09:34.300Z,1014.28
2023-01-22T01:14:34.207Z,1014.29
2023-01-22T01:19:34.267Z,1014.30
2023-01-22T01:24:34.102Z,1014.36
2023-01-22T01:29:34.094Z,1014.38
2023-01-22T01:34:34.005Z,1014.37
2023-01-22T01:39:34.116Z,1014.35
2023-01-22T01:44:33.852Z,1014.31
2023-01-22T01:49:33.833Z,1014.39
2023-01-22T01:54:33.739Z,1014.41
2023-01-22T01:59:33.761Z,1014.48
2023-01-22T02:04:33.715Z,1014.43
2023-01-22T02:09:33.595Z,1014.42
2023-01-22T02:14:33.647Z,1014.43
2023-01-22T02:19:33.489Z,1014.29
2023-01-22T02:24:33.422Z,1014.31
2023-01-22T02:29:33.375Z,1014.33
2023-01-22T02:34:33.470Z,1014.27
2023-01-22T02:39:33.401Z,1014.25
2023-01-22T02:44:33.398Z,1014.24
2023-01-22T02:49:33.172Z,1014.25
2023-01-22T02:54:33.086Z,1014.17
2023-01-22T02:59:33.070Z,1014.15
2023-01-22T03:04:33.023Z,1014.12
2023-01-22T03:09:32.954Z,1014.04
2023-01-22T03:14:32.879Z,1014.01
2023-01-22T03:19:32.829Z,1014.01
2023-01-22T03:24:32.791Z,1014.07
2023-01-22T03:29:32.726Z,1013.98
2023-01-22T03:34:32.781Z,1013.99
2023-01-22T03:39:32.712Z,1013.95
2023-01-22T03:44:32.570Z,1013.96
2023-01-22T03:49:32.539Z,1014.04
2023-01-22T03:54:32.595Z,1014.02
2023-01-22T03:59:32.497Z,1014.01
2023-01-22T04:04:32.349Z,1014.06
2023-01-22T04:09:32.285Z,1014.02
2023-01-22T04:14:32.225Z,1013.98
2023-01-22T04:19:32.167Z,1014.02
2023-01-22T04:24:32.268Z,1013.96
2023-01-22T04:29:32.072Z,1013.97
2023-01-22T04:34:32.042Z,1014.00
2023-01-22T04:39:32.044Z,1014.02
2023-01-22T04:44:31.933Z,1013.98
2023-01-22T04:49:32.150Z,1013.99
2023-01-22T04:54:31.802Z,1014.05
2023-01-22T04:59:31.773Z,1014.04
2023-01-22T05:04:31.751Z,1014.05
2023-01-22T05:09:31.646Z,1014.02
2023-01-22T05:14:31.775Z,1014.00
2023-01-22T05:19:31.725Z,1013.98
2023-01-22T05:24:31.464Z,1014.00
2023-01-22T05:29:31.429Z,1014.02
2023-01-22T05:34:31.369Z,1014.02
2023-01-22T05:39:31.351Z,1014.04
2023-01-22T05:44:33.360Z,1014.01
2023-01-22T05:49:31.215Z,1014.11
2023-01-22T05:54:31.171Z,1014.06
2023-01-22T05:59:31.228Z,1014.05
2023-01-22T06:04:31.029Z,1014.06
2023-01-22T06:09:30.985Z,1014.03
2023-01-22T06:14:30.927Z,1014.02
2023-01-22T06:19:30.874Z,1014.01
2023-01-22T06:24:30.929Z,1014.00
2023-01-22T06:29:30.961Z,1014.11
2023-01-22T06:34:31.782Z,1014.05
2023-01-22T06:39:30.696Z,1014.15
2023-01-22T06:44:30.583Z,1014.20
2023-01-22T06:49:30.541Z,1014.21
2023-01-22T06:54:30.505Z,1014.28
2023-01-22T06:59:30.455Z,1014.25
2023-01-22T07:04:30.413Z,1014.23
2023-01-22T07:09:30.333Z,1014.32
2023-01-22T07:14:36.860Z,1014.35
2023-01-22T07:19:31.258Z,1014.39
2023-01-22T07:24:30.178Z,1014.44
2023-01-22T07:29:30.197Z,1014.49
2023-01-22T07:34:30.078Z,1014.59
2023-01-22T07:39:30.107Z,1014.64
2023-01-22T07:44:30.082Z,1014.67
2023-01-22T07:49:29.936Z,1014.75
2023-01-22T07:54:29.999Z,1014.70
2023-01-22T07:59:29.956Z,1014.80
2023-01-22T08:04:29.903Z,1014.74
2023-01-22T08:09:29.990Z,1014.78
2023-01-22T08:14:29.677Z,1014.86
2023-01-22T08:19:29.607Z,1014.86
2023-01-22T08:24:29.869Z,1014.83
2023-01-22T08:29:29.539Z,1014.87
2023-01-22T08:34:29.568Z,1014.84
2023-01-22T08:39:29.494Z,1014.85
2023-01-22T08:44:32.931Z,1014.85
2023-01-22T08:49:29.257Z,1014.84
2023-01-22T08:54:29.199Z,1014.87
2023-01-22T08:59:30.978Z,1014.91
2023-01-22T09:04:29.238Z,1014.88
2023-01-22T09:09:29.167Z,1014.87
2023-01-22T09:14:28.987Z,1014.90
2023-01-22T09:19:29.032Z,1014.92
2023-01-22T09:24:28.881Z,1014.97
2023-01-22T09:29:29.006Z,1015.00
2023-01-22T09:34:28.773Z,1014.97
2023-01-22T09:39:32.191Z,1014.99
2023-01-22T09:44:29.797Z,1015.06
2023-01-22T09:49:28.635Z,1015.11
2023-01-22T09:54:28.682Z,1015.08
2023-01-22T09:59:28.522Z,1015.03
2023-01-22T10:04:28.487Z,1015.08
2023-01-22T10:09:28.400Z,1015.07
2023-01-22T10:14:28.365Z,1015.03
2023-01-22T10:19:28.297Z,1014.99
2023-01-22T10:24:28.235Z,1015.01
2023-01-22T10:29:28.230Z,1014.98
2023-01-22T10:34:28.353Z,1014.93
2023-01-22T10:39:28.108Z,1014.89
2023-01-22T10:44:28.173Z,1014.84
2023-01-22T10:49:28.204Z,1014.86
2023-01-22T10:54:27.972Z,1014.84
2023-01-22T10:59:27.861Z,1014.79
2023-01-22T11:04:27.825Z,1014.83
2023-01-22T11:09:27.859Z,1014.88
2023-01-22T11:14:27.674Z,1014.87
2023-01-22T11:19:36.899Z,1014.80
2023-01-22T11:24:28.746Z,1014.83
2023-01-22T11:29:27.602Z,1014.78
2023-01-22T11:34:27.481Z,1014.81
2023-01-22T11:39:27.392Z,1014.83
2023-01-22T11:44:28.487Z,1014.79
2023-01-22T11:49:27.321Z,1014.84
2023-01-22T11:54:27.447Z,1014.81
2023-01-22T11:59:27.386Z,1014.85
2023-01-22T12:04:27.147Z,1014.82
2023-01-22T12:09:27.130Z,1014.78
2023-01-22T12:14:27.074Z,1014.81
2023-01-22T12:19:26.970Z,1014.79
2023-01-22T12:24:26.929Z,1014.72
2023-01-22T12:29:26.909Z,1014.79
2023-01-22T12:34:26.800Z,1014.90
2023-01-22T12:39:26.770Z,1014.95
2023-01-22T12:44:26.769Z,1014.91
2023-01-22T12:49:26.718Z,1014.85
2023-01-22T12:54:26.584Z,1014.87
2023-01-22T12:59:26.516Z,1014.88
2023-01-22T13:04:26.498Z,1014.86
2023-01-22T13:09:26.431Z,1014.78
2023-01-22T13:14:26.591Z,1014.76
2023-01-22T13:19:27.439Z,1014.77
2023-01-22T13:24:26.273Z,1014.76
2023-01-22T13:29:27.402Z,1014.80
2023-01-22T13:34:26.374Z,1014.80
2023-01-22T13:39:26.132Z,1014.88
2023-01-22T13:44:26.070Z,1014.90
2023-01-22T13:49:26.008Z,1014.94
2023-01-22T13:54:27.571Z,1014.88
2023-01-22T13:59:25.881Z,1014.86
2023-01-22T14:04:25.838Z,1014.87
2023-01-22T14:09:26.048Z,1014.90
2023-01-22T14:14:25.975Z,1014.89
2023-01-22T14:19:25.706Z,1015.01
2023-01-22T14:24:25.595Z,1015.12
2023-01-22T14:29:25.579Z,1015.18
2023-01-22T14:34:25.532Z,1015.18
2023-01-22T14:39:25.580Z,1015.19
2023-01-22T14:44:25.422Z,1015.24
2023-01-22T14:49:25.387Z,1015.28
2023-01-22T14:54:25.320Z,1015.26
2023-01-22T14:59:25.289Z,1015.36
2023-01-22T15:04:25.220Z,1015.48
2023-01-22T15:09:25.149Z,1015.50
2023-01-22T15:14:25.129Z,1015.54
2023-01-22T15:19:32.184Z,1015.59
2023-01-22T15:24:26.901Z,1015.60
2023-01-22T15:29:24.877Z,1015.64
2023-01-22T15:34:24.891Z,1015.66
2023-01-22T15:39:24.829Z,1015.76
2023-01-22T15:44:24.735Z,1015.77
2023-01-22T15:49:24.718Z,1015.85
2023-01-22T15:54:25.849Z,1015.88
2023-01-22T15:59:24.720Z,1015.86
2023-01-22T16:04:24.533Z,1015.82
2023-01-22T16:09:24.535Z,1015.84
2023-01-22T16:14:24.438Z,1015.89
2023-01-22T16:19:24.406Z,1015.80
2023-01-22T16:24:24.938Z,1015.76
2023-01-22T16:29:27.346Z,1015.71
2023-01-22T16:34:24.799Z,1015.72
2023-01-22T16:39:26.884Z,1015.75
2023-01-22T16:44:24.636Z,1015.78
2023-01-22T16:49:25.481Z,1015.81
2023-01-22T16:54:24.018Z,1015.74
2023-01-22T16:59:24.007Z,1015.72
2023-01-22T17:04:23.933Z,1015.86
2023-01-22T17:09:23.900Z,1015.86
2023-01-22T17:14:24.987Z,1015.86
2023-01-22T17:19:24.799Z,1015.92
2023-01-22T17:24:23.790Z,1015.93
2023-01-22T17:29:23.653Z,1015.96
2023-01-22T17:34:23.584Z,1015.96
2023-01-22T17:39:23.495Z,1015.98
2023-01-22T17:44:23.547Z,1015.97
2023-01-22T17:49:23.504Z,1016.01
2023-01-22T17:54:23.442Z,1016.02
2023-01-22T17:59:23.278Z,1016.03
2023-01-22T18:04:23.212Z,1016.07
2023-01-22T18:09:23.187Z,1016.18
2023-01-22T18:14:26.653Z,1016.24
2023-01-22T18:19:23.253Z,1016.24
2023-01-22T18:24:23.229Z,1016.24
2023-01-22T18:29:22.932Z,1016.34
2023-01-22T18:34:22.936Z,1016.32
2023-01-22T18:39:22.824Z,1016.40
2023-01-22T18:44:22.819Z,1016.43
2023-01-22T18:49:22.809Z,1016.48
2023-01-22T18:54:22.757Z,1016.46
2023-01-22T18:59:22.593Z,1016.46
2023-01-22T19:04:22.581Z,1016.50
2023-01-22T19:09:24.646Z,1016.60
2023-01-22T19:14:22.577Z,1016.60
2023-01-22T19:19:22.425Z,1016.62
2023-01-22T19:24:22.563Z,1016.66
2023-01-22T19:29:22.269Z,1016.74
2023-01-22T19:34:22.218Z,1016.74
2023-01-22T19:39:22.158Z,1016.80
2023-01-22T19:44:22.294Z,1016.82
2023-01-22T19:49:22.046Z,1016.88
2023-01-22T19:54:22.044Z,1016.91
2023-01-22T19:59:21.968Z,1016.89
2023-01-22T20:04:22.050Z,1016.87
2023-01-22T20:09:22.033Z,1016.88
2023-01-22T20:14:21.805Z,1016.94
2023-01-22T20:19:21.740Z,1016.95
2023-01-22T20:24:21.816Z,1016.98
2023-01-22T20:29:21.645Z,1016.99
2023-01-22T20:34:21.684Z,1017.06
2023-01-22T20:39:21.493Z,1017.06
2023-01-22T20:44:21.669Z,1017.12
2023-01-22T20:49:21.395Z,1017.09
2023-01-22T20:54:21.379Z,1017.16
2023-01-22T20:59:21.299Z,1017.15
2023-01-22T21:04:21.265Z,1017.09
2023-01-22T21:09:21.284Z,1017.22
2023-01-22T21:14:21.166Z,1017.22
2023-01-22T21:19:21.112Z,1017.29
2023-01-22T21:24:21.179Z,1017.22
2023-01-22T21:29:20.969Z,1017.23
2023-01-22T21:34:20.951Z,1017.28
2023-01-22T21:39:20.855Z,1017.23
2023-01-22T21:44:20.873Z,1017.28
2023-01-22T21:49:20.787Z,1017.24
2023-01-22T21:54:20.689Z,1017.20
2023-01-22T21:59:20.805Z,1017.24
2023-01-22T22:04:20.715Z,1017.22
2023-01-22T22:09:20.555Z,1017.25
2023-01-22T22:14:20.560Z,1017.20
2023-01-22T22:19:20.540Z,1017.22
2023-01-22T22:24:21.521Z,1017.25
2023-01-22T22:29:20.348Z,1017.23
2023-01-22T22:34:20.268Z,1017.27
2023-01-22T22:39:20.210Z,1017.32
2023-01-22T22:44:20.198Z,1017.30
2023-01-22T22:49:20.108Z,1017.31
2023-01-22T22:54:20.187Z,1017.31
2023-01-22T22:59:20.028Z,1017.33
2023-01-22T23:04:20.030Z,1017.33
2023-01-22T23:09:19.929Z,1017.32
2023-01-22T23:14:19.839Z,1017.32
2023-01-22T23:19:19.793Z,1017.32
2023-01-22T23:24:19.756Z,1017.38
2023-01-22T23:29:19.668Z,1017.46
2023-01-22T23:34:19.659Z,1017.46
2023-01-22T23:39:19.573Z,1017.61
2023-01-22T23:44:19.539Z,1017.60
2023-01-22T23:49:19.454Z,1017.63
2023-01-22T23:54:19.430Z,1017.66
2023-01-22T23:59:19.373Z,1017.70
